createdAt,value
2023-03-06T11:14:03.005Z,98946.06
2023-03-06T11:16:07.522Z,98943.61
2023-03-06T11:18:11.914Z,98942.36
2023-03-06T11:20:16.230Z,98939.38
2023-03-06T11:22:20.730Z,98940.17
2023-03-06T11:24:25.133Z,98937.58
2023-03-06T11:26:29.534Z,98937.31
2023-03-06T11:28:33.898Z,98934.2
2023-03-06T11:30:38.258Z,98928.89
2023-03-06T11:32:42.734Z,98928.58
2023-03-06T11:34:50.479Z,98927.98
2023-03-06T11:36:55.028Z,98932.38
2023-03-06T11:38:59.376Z,98925.09
2023-03-06T11:41:03.768Z,98923.73
2023-03-06T11:43:08.112Z,98926.74
2023-03-06T11:45:12.466Z,98927.28
2023-03-06T11:47:16.829Z,98923.85
2023-03-06T11:49:21.203Z,98916.42
2023-03-06T11:51:25.570Z,98922.38
2023-03-06T11:53:29.921Z,98914.67
2023-03-06T11:55:34.246Z,98911.75
2023-03-06T11:57:38.622Z,98910.27
2023-03-06T11:59:42.957Z,98907.58
2023-03-06T12:01:47.412Z,98904.23
2023-03-06T12:03:51.935Z,98902.09
2023-03-06T12:05:56.325Z,98896.61
2023-03-06T12:08:00.644Z,98891.3
2023-03-06T12:10:06.007Z,98895.37
2023-03-06T12:12:10.370Z,98888.33
2023-03-06T12:14:14.717Z,98890.39
2023-03-06T12:16:19.292Z,98875.72
2023-03-06T12:18:23.732Z,98871.67
2023-03-06T12:20:28.108Z,98875.63
2023-03-06T12:22:32.472Z,98875.95
2023-03-06T12:24:36.851Z,98879.88
2023-03-06T12:26:41.301Z,98878
2023-03-06T12:28:47.465Z,98876.41
2023-03-06T12:30:51.801Z,98877.73
2023-03-06T12:32:56.148Z,98875.55
2023-03-06T12:35:00.596Z,98874.38
2023-03-06T12:37:06.520Z,98877.06
2023-03-06T12:39:10.884Z,98875.02
2023-03-06T12:41:15.369Z,98871.19
2023-03-06T12:43:19.816Z,98874.32
2023-03-06T12:45:24.320Z,98876.16
2023-03-06T12:47:28.665Z,98877.07
2023-03-06T12:49:34.539Z,98879.15
2023-03-06T12:51:39.000Z,98880.22
2023-03-06T12:53:43.356Z,98878.58
2023-03-06T12:55:47.943Z,98879.42
2023-03-06T12:57:52.357Z,98873.58
2023-03-06T12:59:56.732Z,98876.63
2023-03-06T13:02:01.153Z,98874.38
2023-03-06T13:04:05.701Z,98878.34
2023-03-06T13:06:10.091Z,98877
2023-03-06T13:08:14.478Z,98887.7
2023-03-06T13:10:18.845Z,98883.74
2023-03-06T13:12:23.278Z,98873.07
2023-03-06T13:14:27.698Z,98891.75
2023-03-06T13:16:32.215Z,98892.82
2023-03-06T13:18:36.742Z,98889.48
2023-03-06T13:20:41.162Z,98890.16
2023-03-06T13:22:45.556Z,98895.25
2023-03-06T13:24:55.006Z,98897.19
2023-03-06T13:27:11.739Z,98899.84
2023-03-06T13:29:16.092Z,98898.05
2023-03-06T13:31:28.706Z,98901.58
2023-03-06T13:33:33.251Z,98894.81
2023-03-06T13:35:37.680Z,98899.34
2023-03-06T13:37:42.130Z,98903.98
2023-03-06T13:39:46.476Z,98902.13
2023-03-06T13:41:50.836Z,98906.93
2023-03-06T13:43:55.218Z,98903.27
2023-03-06T13:45:59.676Z,98907.78
2023-03-06T13:48:44.001Z,98908.39
2023-03-06T13:50:49.873Z,98905.59
2023-03-06T13:52:56.160Z,98907.95
2023-03-06T13:55:00.576Z,98913.38
2023-03-06T13:57:05.042Z,98906.85
2023-03-06T13:59:09.445Z,98893.41
2023-03-06T14:01:17.356Z,98882.23
2023-03-06T14:03:21.837Z,98886.02
2023-03-06T14:05:26.142Z,98865.83
2023-03-06T14:07:30.446Z,98856.56
2023-03-06T14:09:34.814Z,98853.84
2023-03-06T14:11:39.162Z,98855.77
2023-03-06T14:13:48.789Z,98850.63
2023-03-06T14:15:53.555Z,98847.2
2023-03-06T14:17:58.132Z,98839.02
2023-03-06T14:20:02.582Z,98843.52
2023-03-06T14:22:07.080Z,98840.5
2023-03-06T14:24:11.439Z,98843.02
2023-03-06T14:26:15.788Z,98840.33
2023-03-06T14:28:20.102Z,98838.75
2023-03-06T14:30:27.014Z,98835.89
2023-03-06T14:32:31.620Z,98836.55
2023-03-06T14:34:36.079Z,98835.83
2023-03-06T14:36:40.439Z,98832.03
2023-03-06T14:38:44.836Z,98832.88
2023-03-06T14:40:49.242Z,98829.92
2023-03-06T14:42:53.666Z,98829.63
2023-03-06T14:44:58.003Z,98827.5
2023-03-06T14:47:02.364Z,98831.53
2023-03-06T14:49:06.792Z,98821.65
2023-03-06T14:51:11.191Z,98822.23
2023-03-06T14:53:17.992Z,98826.75
2023-03-06T14:55:22.484Z,98825.13
2023-03-06T14:57:27.018Z,98822.95
2023-03-06T14:59:31.361Z,98824.28
2023-03-06T15:01:35.915Z,98818.86
2023-03-06T15:03:40.377Z,98821.52
2023-03-06T15:05:44.736Z,98821.46
2023-03-06T15:07:49.163Z,98820.72
2023-03-06T15:09:53.626Z,98824.17
2023-03-06T15:11:57.992Z,98821.53
2023-03-06T15:14:02.416Z,98815.27
2023-03-06T15:16:06.964Z,98820.47
2023-03-06T15:18:11.464Z,98823.88
2023-03-06T15:20:15.875Z,98823.3
2023-03-06T15:22:20.367Z,98826.97
2023-03-06T15:24:24.742Z,98827.33
2023-03-06T15:26:30.507Z,98827.97
2023-03-06T15:28:34.887Z,98824.7
2023-03-06T15:30:39.390Z,98825.9
2023-03-06T15:32:43.958Z,98821.84
2023-03-06T15:34:48.367Z,98828.67
2023-03-06T15:36:52.876Z,98827.16
2023-03-06T15:38:57.296Z,98824.69
2023-03-06T15:41:01.639Z,98830.95
2023-03-06T15:43:06.093Z,98827.61
2023-03-06T15:45:10.614Z,98824.7
2023-03-06T15:47:15.035Z,98820.88
2023-03-06T15:49:19.445Z,98824.72
2023-03-06T15:51:23.806Z,98820.91
2023-03-06T15:53:28.213Z,98816.14
2023-03-06T15:55:32.621Z,98813.66
2023-03-06T15:57:37.088Z,98817.09
2023-03-06T15:59:41.538Z,98814.98
2023-03-06T16:01:46.120Z,98814.53
2023-03-06T16:03:50.703Z,98814.88
2023-03-06T16:05:55.166Z,98817.29
2023-03-06T16:07:59.580Z,98819.53
2023-03-06T16:10:03.936Z,98819.14
2023-03-06T16:12:08.519Z,98829.61
2023-03-06T16:14:12.941Z,98821.73
2023-03-06T16:16:17.647Z,98817.48
2023-03-06T16:18:22.226Z,98824.94
2023-03-06T16:20:26.688Z,98821.31
2023-03-06T16:22:31.096Z,98824.27
2023-03-06T16:24:35.609Z,98821.14
2023-03-06T16:26:40.095Z,98826.64
2023-03-06T16:28:44.451Z,98821.7
2023-03-06T16:30:48.899Z,98822.2
2023-03-06T16:32:53.377Z,98825.88
2023-03-06T16:34:57.724Z,98825.28
2023-03-06T16:37:02.240Z,98826.66
2023-03-06T16:39:06.599Z,98829.16
2023-03-06T16:41:11.001Z,98826.13
2023-03-06T16:43:15.361Z,98824.23
2023-03-06T16:45:19.748Z,98820.55
2023-03-06T16:47:24.101Z,98820.91
2023-03-06T16:49:28.641Z,98823.93
2023-03-06T16:51:33.025Z,98824.49
2023-03-06T16:53:37.395Z,98821.38
2023-03-06T16:55:41.873Z,98831.56
2023-03-06T16:57:46.443Z,98830.61
2023-03-06T16:59:50.817Z,98835.44
2023-03-06T17:01:55.223Z,98836.01
2023-03-06T17:03:59.625Z,98835.5
2023-03-06T17:06:03.976Z,98837.32
2023-03-06T17:08:08.478Z,98837.86
2023-03-06T17:10:12.862Z,98838.63
2023-03-06T17:12:17.290Z,98839.33
2023-03-06T17:14:21.701Z,98841.48
2023-03-06T17:16:26.133Z,98837.85
2023-03-06T17:18:30.544Z,98840.47
2023-03-06T17:20:35.030Z,98845.27
2023-03-06T17:22:39.401Z,98840
2023-03-06T17:24:43.786Z,98843.75
2023-03-06T17:26:48.209Z,98846.89
2023-03-06T17:28:52.645Z,98844.46
2023-03-06T17:30:57.118Z,98842.66
2023-03-06T17:33:01.597Z,98844.8
2023-03-06T17:35:06.009Z,98844.36
2023-03-06T17:37:10.495Z,98843.89
2023-03-06T17:39:14.887Z,98839.11
2023-03-06T17:41:19.253Z,98845.89
2023-03-06T17:43:23.613Z,98851.88
2023-03-06T17:45:28.059Z,98846.75
2023-03-06T17:47:32.418Z,98849.95
2023-03-06T17:49:36.811Z,98852.44
2023-03-06T17:51:41.342Z,98854.2
2023-03-06T17:53:45.887Z,98851.42
2023-03-06T17:55:50.343Z,98853.94
2023-03-06T17:57:54.706Z,98852.72
2023-03-06T17:59:59.298Z,98856.5
2023-03-06T18:02:03.930Z,98854.95
2023-03-06T18:04:08.418Z,98862.88
2023-03-06T18:06:12.805Z,98856.67
2023-03-06T18:08:17.369Z,98859.84
2023-03-06T18:10:21.721Z,98860.67
2023-03-06T18:12:26.077Z,98857.04
2023-03-06T18:14:30.501Z,98862.28
2023-03-06T18:16:35.090Z,98858.87
2023-03-06T18:18:39.602Z,98866.33
2023-03-06T18:20:47.180Z,98858.98
2023-03-06T18:22:51.690Z,98857.84
2023-03-06T18:24:56.090Z,98857.16
2023-03-06T18:27:00.525Z,98864.52
2023-03-06T18:29:04.866Z,98865.23
2023-03-06T18:31:09.445Z,98870.02
2023-03-06T18:33:13.938Z,98869.55
2023-03-06T18:35:18.528Z,98872.8
2023-03-06T18:37:23.180Z,98872.26
2023-03-06T18:39:27.551Z,98871.07
2023-03-06T18:41:31.951Z,98879.07
2023-03-06T18:43:36.375Z,98875.41
2023-03-06T18:45:40.876Z,98877.2
2023-03-06T18:47:45.363Z,98873.48
2023-03-06T18:49:49.738Z,98876.06
2023-03-06T18:51:54.202Z,98878.86
2023-03-06T18:53:58.623Z,98877.03
2023-03-06T18:56:02.991Z,98874.65
2023-03-06T18:58:07.365Z,98875.81
2023-03-06T19:00:11.673Z,98877.09
2023-03-06T19:02:16.168Z,98875.88
2023-03-06T19:04:20.665Z,98879.1
2023-03-06T19:06:27.913Z,98882
2023-03-06T19:08:32.379Z,98882.83
2023-03-06T19:10:36.729Z,98878.99
2023-03-06T19:12:41.113Z,98874.82
2023-03-06T19:14:45.590Z,98882.23
2023-03-06T19:16:50.119Z,98878.41
2023-03-06T19:18:54.589Z,98881.16
2023-03-06T19:20:58.989Z,98878.08
2023-03-06T19:23:03.417Z,98880.69
2023-03-06T19:25:07.930Z,98880.42
2023-03-06T19:27:12.283Z,98884.13
2023-03-06T19:29:16.658Z,98885.5
2023-03-06T19:31:21.355Z,98892.25
2023-03-06T19:33:25.841Z,98898.09
2023-03-06T19:35:30.352Z,98890.33
2023-03-06T19:37:34.936Z,98898.23
2023-03-06T19:39:39.298Z,98891.3
2023-03-06T19:41:43.672Z,98891.19
2023-03-06T19:43:48.046Z,98892.34
2023-03-06T19:45:52.753Z,98893.45
2023-03-06T19:47:57.132Z,98894.9
2023-03-06T19:50:01.543Z,98895.18
2023-03-06T19:52:05.988Z,98897.65
2023-03-06T19:54:10.409Z,98894.9
2023-03-06T19:56:14.770Z,98896.55
2023-03-06T19:58:19.326Z,98898.04
2023-03-06T20:00:23.721Z,98900.67
2023-03-06T20:02:28.128Z,98904.47
2023-03-06T20:04:32.587Z,98904.61
2023-03-06T20:06:37.027Z,98907.83
2023-03-06T20:08:41.378Z,98919.49
2023-03-06T20:10:45.781Z,98914.36
2023-03-06T20:12:50.212Z,98919.08
2023-03-06T20:14:54.553Z,98919.84
2023-03-06T20:16:58.886Z,98918.41
2023-03-06T20:19:03.876Z,98919.9
2023-03-06T20:21:08.631Z,98920.73
